Wausa, NE (68786)

8:41 PM CST on February 10, 2016 (GMT -0600)
Hwy 20 and Hwy 81 | | Change Station
CLOSE
Current Station
Personal Weather Station
Location: Osmond, NE
Elevation: 1778 ft
Nearby Weather Stations

Elev 1778 ft 42.37 °N, 97.44 °W | Updated 2 minutes ago

Mostly Cloudy
Mostly Cloudy
19.7 °F
Feels Like 8 °F
N
10.0
Wind Variable Wind from NE
Gusts 15.0 mph

Today
High -- | Low -- °F
--% Chance of Precip.
Yesterday
High -- | Low -- °F
Precip. -- in
Pressure 30.18 in
Visibility 10.0 miles
Clouds Overcast 2100 ft
Windchill 8 °F
Dew Point 18 °F
Humidity 92%
Rainfall 0.00 in
Snow Depth Not available.
7:34 AM 5:55 PM
Waxing Crescent, 8% visible
METAR KYKN 110235Z AUTO 07009KT 10SM OVC021 M07/M11 A3018 RMK AO1
Pressure 30.18 in
Visibility 10.0 miles
Clouds Overcast 2100 ft
Windchill 8 °F
Dew Point 18 °F
Humidity 92%
Rainfall 0.00 in
Snow Depth Not available.
7:34 AM 5:55 PM
Waxing Crescent, 8% visible
METAR KYKN 110235Z AUTO 07009KT 10SM OVC021 M07/M11 A3018 RMK AO1

10-Day Weather Forecast

Almanac

Astronomy

Feb. 10, 2016 Rise Set
Actual Time
Civil Twilight
Nautical Twilight
Astronomical Twilight
Moon
Length of Visible Light
Length of Day
Tomorrow will be .
, % of the Moon is Illuminated

Today's Extremes

State Highs State Lows

Community

WunderPhotos

Upload Photos

1,891,986 photos uploaded!

WunderBlog® & News

Nearby

Air Quality

  Air Quality AQ Index Pollutant
Not available.

Snow Depth

Station Depth Elevation

Earthquake Activity

City Distance Mag. Time & Date
Minimum magnitude displayed is 2.5.

Coastal Water Temperatures

Place Temperature

Stations

Nearby Weather Stations

Station Location Temp. Windchill Dew Point Humidity Wind Precip. Elev Updated Type
                   

Watches & Warnings

There are currently no watches in effect.